Página principal
METAR-TAF:

METAR-TAF

Aeroportos :

Angoon, Alasca, Estados Unidos

latitude: 57-30N, longitude: 134-35W, altura: 0 m

Observação actual do tempo

O boletim foi feito há 46 minutos, às 02:56 UTC
Vento 5 kt com direcção variável
Temperatura 11°C
Humidade 71%
Pressão 1016 hPa
Visibilidade: 16.1 km
Encobertoa uma altura de 6000 ft

METAR: PAGN 230256Z AUTO VRB05KT 10SM OVC060 11/06 A3000 RMK AO2 RAE0158 SLPNO P0000 6//// T01060056

Hora: 19:42 (03:42 UTC)


TAF: em falta

Observações e previsões do tempo de mais de 4000 aeroportos (mensagens METAR e TAF).

As estações disponíveis são os pontos amarelos e vermelhos sobre o mapa.

Mova o rato sobre o mapa para ver o nome da estação.

Depois clique no ponto para visualizar as observações e previsões meteorológicas.

Para alterar o mapa : clique nos botões verdes com uma cruz preta para aumentar o zoom; no botão verde com uma pitada de zoom; ou nas setas verdes para mapas adjacentes.


METAR-TAF: